createdAt,value
2018-11-14T00:01:15.830Z,92.70
2018-11-14T00:03:43.535Z,92.70
2018-11-14T00:06:11.268Z,92.80
2018-11-14T00:08:39.027Z,92.90
2018-11-14T00:11:06.734Z,93.20
2018-11-14T00:13:34.405Z,93.50
2018-11-14T00:16:02.117Z,93.50
2018-11-14T00:18:29.805Z,93.50
2018-11-14T00:20:57.523Z,93.40
2018-11-14T00:23:25.218Z,93.20
2018-11-14T00:25:52.988Z,93.20
2018-11-14T00:28:20.757Z,93.10
2018-11-14T00:30:48.438Z,93.10
2018-11-14T00:33:16.473Z,93.20
2018-11-14T00:35:44.021Z,92.90
2018-11-14T00:38:11.666Z,92.90
2018-11-14T00:40:39.417Z,93.10
2018-11-14T00:43:07.116Z,93.00
2018-11-14T00:45:34.861Z,93.20
2018-11-14T00:48:02.562Z,92.90
2018-11-14T00:50:30.283Z,92.80
2018-11-14T00:52:58.025Z,92.80
2018-11-14T00:55:25.709Z,92.70
2018-11-14T00:57:53.457Z,92.40
2018-11-14T01:00:23.447Z,92.60
2018-11-14T01:02:51.245Z,92.80
2018-11-14T01:05:25.750Z,93.00
2018-11-14T01:07:53.483Z,92.70
2018-11-14T01:10:22.012Z,92.70
2018-11-14T01:12:50.348Z,92.70
2018-11-14T01:15:19.327Z,92.70
2018-11-14T01:17:46.979Z,92.70
2018-11-14T01:20:15.911Z,92.80
2018-11-14T01:22:44.010Z,93.00
2018-11-14T01:25:12.710Z,93.00
2018-11-14T01:27:40.644Z,93.20
2018-11-14T01:30:12.446Z,92.90
2018-11-14T01:32:40.127Z,92.50
2018-11-14T01:35:08.042Z,92.80
2018-11-14T01:37:35.753Z,92.90
2018-11-14T01:40:04.299Z,93.00
2018-11-14T01:42:31.981Z,93.00
2018-11-14T01:45:05.971Z,93.10
2018-11-14T01:47:33.907Z,92.90
2018-11-14T01:50:02.125Z,93.20
2018-11-14T01:52:29.807Z,92.90
2018-11-14T01:54:57.533Z,93.00
2018-11-14T01:57:25.728Z,93.20
2018-11-14T01:59:53.875Z,93.30
2018-11-14T02:02:21.575Z,93.40
2018-11-14T02:04:49.699Z,93.70
2018-11-14T02:07:17.345Z,93.90
2018-11-14T02:09:45.115Z,93.90
2018-11-14T02:12:12.891Z,93.90
2018-11-14T02:14:40.803Z,94.00
2018-11-14T02:17:08.466Z,94.10
2018-11-14T02:19:36.428Z,94.10
2018-11-14T02:22:04.391Z,94.00
2018-11-14T02:24:32.120Z,93.70
2018-11-14T02:26:59.788Z,94.00
2018-11-14T02:29:27.567Z,93.50
2018-11-14T02:31:55.267Z,93.70
2018-11-14T02:34:22.929Z,93.90
2018-11-14T02:39:25.094Z,94.10
2018-11-14T02:41:52.758Z,94.20
2018-11-14T02:44:20.404Z,94.20
2018-11-14T02:46:48.105Z,94.30
2018-11-14T02:49:15.786Z,94.30
2018-11-14T02:51:43.467Z,94.40
2018-11-14T02:54:11.153Z,94.40
2018-11-14T02:56:38.842Z,94.50
2018-11-14T02:59:06.526Z,94.50
2018-11-14T03:01:34.226Z,94.30
2018-11-14T03:04:01.891Z,94.30
2018-11-14T03:06:29.546Z,94.10
2018-11-14T03:08:57.252Z,94.20
2018-11-14T03:11:24.925Z,94.20
2018-11-14T03:13:52.587Z,94.30
2018-11-14T03:16:20.270Z,93.90
2018-11-14T03:18:47.914Z,93.70
2018-11-14T03:21:15.552Z,93.80
2018-11-14T03:23:43.235Z,94.20
2018-11-14T03:26:10.910Z,93.60
2018-11-14T03:28:38.542Z,93.60
2018-11-14T03:31:06.331Z,93.40
2018-11-14T03:33:34.025Z,93.40
2018-11-14T03:36:07.481Z,93.50
2018-11-14T03:38:35.134Z,93.60
2018-11-14T03:41:02.773Z,93.50
2018-11-14T03:43:30.460Z,93.30
2018-11-14T03:45:58.136Z,93.50
2018-11-14T03:48:25.803Z,93.20
2018-11-14T03:50:53.507Z,93.10
2018-11-14T03:53:21.190Z,92.90
2018-11-14T03:55:48.842Z,93.10
2018-11-14T03:58:16.598Z,92.80
2018-11-14T04:00:44.234Z,93.20
2018-11-14T04:03:12.118Z,93.30
2018-11-14T04:05:39.899Z,93.10
2018-11-14T04:08:07.534Z,93.20
2018-11-14T04:10:35.174Z,93.30
2018-11-14T04:13:02.851Z,93.10
2018-11-14T04:15:30.518Z,93.10
2018-11-14T04:17:58.180Z,92.80
2018-11-14T04:20:25.882Z,92.80
2018-11-14T04:22:53.590Z,92.80
2018-11-14T04:25:21.261Z,93.00
2018-11-14T04:27:49.306Z,93.00
2018-11-14T04:30:18.132Z,92.60
2018-11-14T04:32:45.777Z,92.80
2018-11-14T04:35:15.386Z,92.90
2018-11-14T04:37:43.052Z,93.10
2018-11-14T04:40:12.590Z,92.80
2018-11-14T04:42:40.309Z,92.80
2018-11-14T04:45:10.990Z,92.80
2018-11-14T04:47:38.759Z,92.80
2018-11-14T04:50:08.783Z,92.90
2018-11-14T04:52:36.468Z,92.60
2018-11-14T04:55:04.652Z,92.60
2018-11-14T04:57:32.326Z,92.70
2018-11-14T04:59:59.962Z,92.60
2018-11-14T05:02:27.626Z,92.40
2018-11-14T05:04:55.318Z,92.10
2018-11-14T05:07:22.991Z,91.90
2018-11-14T05:09:50.646Z,92.10
2018-11-14T05:12:18.346Z,91.90
2018-11-14T05:14:45.978Z,91.60
2018-11-14T05:17:13.664Z,91.30
2018-11-14T05:19:41.374Z,91.60
2018-11-14T05:22:09.034Z,91.30
2018-11-14T05:24:36.759Z,91.30
2018-11-14T05:27:04.950Z,91.60
2018-11-14T05:29:32.630Z,91.60
2018-11-14T05:32:00.455Z,91.80
2018-11-14T05:34:28.130Z,92.00
2018-11-14T05:36:55.900Z,92.10
2018-11-14T05:39:23.576Z,92.10
2018-11-14T05:41:51.270Z,92.30
2018-11-14T05:44:18.958Z,92.10
2018-11-14T05:46:46.666Z,91.60
2018-11-14T05:49:14.386Z,91.60
2018-11-14T05:51:42.046Z,91.70
2018-11-14T05:54:09.706Z,91.30
2018-11-14T05:56:37.399Z,91.80
2018-11-14T05:59:05.074Z,91.80
2018-11-14T06:01:32.726Z,91.50
2018-11-14T06:04:00.424Z,91.30
2018-11-14T06:06:28.090Z,91.40
2018-11-14T06:08:55.747Z,91.70
2018-11-14T06:11:23.456Z,91.80
2018-11-14T06:13:51.100Z,92.20
2018-11-14T06:16:18.750Z,91.90
2018-11-14T06:18:46.998Z,92.10
2018-11-14T06:21:15.694Z,92.10
2018-11-14T06:23:43.529Z,92.10
2018-11-14T06:26:12.696Z,92.10
2018-11-14T06:28:42.582Z,92.10
2018-11-14T06:31:10.229Z,92.20
2018-11-14T06:33:38.042Z,92.30
2018-11-14T06:36:05.746Z,92.30
2018-11-14T06:38:33.442Z,92.60
2018-11-14T06:41:01.130Z,92.60
2018-11-14T06:43:28.814Z,92.50
2018-11-14T06:45:56.466Z,92.50
2018-11-14T06:48:24.146Z,92.70
2018-11-14T06:50:51.787Z,92.80
2018-11-14T06:53:19.506Z,92.70
2018-11-14T06:55:47.175Z,92.40
2018-11-14T06:58:14.843Z,92.50
2018-11-14T07:00:42.533Z,92.30
2018-11-14T07:03:10.301Z,92.30
2018-11-14T07:05:37.965Z,92.20
2018-11-14T07:08:05.910Z,92.10
2018-11-14T07:10:34.946Z,92.40
2018-11-14T07:13:06.731Z,92.30
2018-11-14T07:15:34.950Z,92.30
2018-11-14T07:18:02.758Z,92.30
2018-11-14T07:20:31.786Z,92.10
2018-11-14T07:22:59.510Z,92.00
2018-11-14T07:25:27.203Z,91.70
2018-11-14T07:27:54.852Z,91.40
2018-11-14T07:30:24.562Z,91.40
2018-11-14T07:32:54.644Z,91.70
2018-11-14T07:35:22.290Z,91.30
2018-11-14T07:38:42.772Z,91.40
2018-11-14T07:41:12.787Z,91.50
2018-11-14T07:43:41.162Z,91.10
2018-11-14T07:46:09.584Z,91.20
2018-11-14T07:48:37.707Z,91.40
2018-11-14T07:51:05.791Z,91.40
2018-11-14T07:53:33.839Z,91.70
2018-11-14T07:56:01.654Z,91.10
2018-11-14T07:58:29.634Z,91.40
2018-11-14T08:00:57.571Z,91.10
2018-11-14T08:03:25.286Z,90.80
2018-11-14T08:05:53.406Z,90.70
2018-11-14T08:08:21.245Z,90.80
2018-11-14T08:10:48.844Z,91.30
2018-11-14T08:13:19.567Z,91.00
2018-11-14T08:15:48.564Z,90.80
2018-11-14T08:18:16.280Z,90.50
2018-11-14T08:20:43.998Z,90.20
2018-11-14T08:23:11.753Z,90.40
2018-11-14T08:25:39.820Z,90.50
2018-11-14T08:28:07.797Z,90.40
2018-11-14T08:30:35.788Z,90.80
2018-11-14T08:33:03.539Z,90.40
2018-11-14T08:35:31.371Z,90.60
2018-11-14T08:37:59.125Z,90.70
2018-11-14T08:40:34.404Z,90.30
2018-11-14T08:43:02.131Z,90.70
2018-11-14T08:45:29.839Z,90.20
2018-11-14T08:47:57.500Z,90.10
2018-11-14T08:50:25.264Z,90.60
2018-11-14T08:52:52.913Z,90.70
2018-11-14T08:55:20.606Z,90.10
2018-11-14T08:57:48.361Z,89.80
2018-11-14T09:00:19.453Z,89.90
2018-11-14T09:02:47.824Z,90.10
2018-11-14T09:05:16.096Z,90.10
2018-11-14T09:07:43.975Z,90.20
2018-11-14T09:10:22.603Z,89.10
2018-11-14T09:12:50.441Z,86.90
2018-11-14T09:15:19.225Z,87.90
2018-11-14T09:17:47.163Z,88.60
2018-11-14T09:20:16.387Z,89.50
2018-11-14T09:22:44.376Z,86.00
2018-11-14T09:25:17.912Z,87.20
2018-11-14T09:27:45.704Z,87.60
2018-11-14T09:30:18.688Z,87.30
2018-11-14T09:32:46.421Z,87.40
2018-11-14T09:35:16.264Z,86.30
2018-11-14T09:37:44.171Z,87.00
2018-11-14T09:40:14.860Z,87.00
2018-11-14T09:42:42.568Z,87.00
2018-11-14T09:45:13.463Z,86.60
2018-11-14T09:47:41.218Z,85.90
2018-11-14T09:50:11.608Z,85.10
2018-11-14T09:52:39.443Z,85.70
2018-11-14T09:55:08.520Z,86.10
2018-11-14T09:57:36.664Z,85.70
2018-11-14T10:00:07.224Z,85.60
2018-11-14T10:02:35.024Z,86.10
2018-11-14T10:05:02.748Z,86.30
2018-11-14T10:07:30.545Z,86.50
2018-11-14T10:09:58.264Z,86.50
2018-11-14T10:12:25.995Z,86.10
2018-11-14T10:14:53.814Z,85.90
2018-11-14T10:17:21.520Z,86.40
2018-11-14T10:19:49.282Z,86.60
2018-11-14T10:22:17.036Z,86.60
2018-11-14T10:24:44.877Z,86.60
2018-11-14T10:27:12.600Z,87.10
2018-11-14T10:29:40.379Z,89.00
2018-11-14T10:32:08.134Z,87.40
2018-11-14T10:34:35.860Z,87.00
2018-11-14T10:37:03.961Z,89.30
2018-11-14T10:39:31.737Z,90.20
2018-11-14T10:41:59.460Z,90.20
2018-11-14T10:44:27.197Z,90.70
2018-11-14T10:46:55.760Z,90.40
2018-11-14T10:49:23.458Z,90.80
2018-11-14T10:51:51.176Z,90.80
2018-11-14T10:54:18.871Z,90.90
2018-11-14T10:56:46.570Z,91.30
2018-11-14T10:59:14.408Z,91.60
2018-11-14T11:01:47.731Z,91.20
2018-11-14T11:04:21.156Z,91.30
2018-11-14T11:06:54.608Z,91.20
2018-11-14T11:09:27.890Z,91.50
2018-11-14T11:12:01.361Z,91.40
2018-11-14T11:14:31.818Z,91.20
2018-11-14T11:17:05.110Z,91.00
2018-11-14T11:19:32.832Z,91.00
2018-11-14T11:22:00.527Z,91.10
2018-11-14T11:24:28.264Z,90.90
2018-11-14T11:26:56.001Z,90.70
2018-11-14T11:29:23.679Z,91.00
2018-11-14T11:31:51.406Z,90.80
2018-11-14T11:34:19.184Z,90.80
2018-11-14T11:36:46.921Z,90.50
2018-11-14T11:39:16.030Z,88.10
2018-11-14T11:41:44.389Z,88.30
2018-11-14T11:44:12.223Z,88.80
2018-11-14T11:46:40.929Z,88.20
2018-11-14T11:49:09.129Z,87.60
2018-11-14T11:51:36.821Z,88.20
2018-11-14T11:54:04.997Z,88.60
2018-11-14T11:56:32.819Z,89.10
2018-11-14T11:59:00.620Z,89.10
2018-11-14T12:01:28.322Z,89.60
2018-11-14T12:03:56.051Z,89.20
2018-11-14T12:06:23.742Z,90.10
2018-11-14T12:08:51.433Z,91.10
2018-11-14T12:11:19.189Z,91.50
2018-11-14T12:13:46.963Z,91.90
2018-11-14T12:16:14.641Z,91.60
2018-11-14T12:18:42.363Z,91.90
2018-11-14T12:21:10.165Z,92.10
2018-11-14T12:23:37.949Z,92.20
2018-11-14T12:26:05.753Z,92.20
2018-11-14T12:28:33.477Z,92.20
2018-11-14T12:31:01.393Z,92.30
2018-11-14T12:33:28.898Z,92.40
2018-11-14T12:35:56.578Z,92.40
2018-11-14T12:38:24.351Z,92.10
2018-11-14T12:40:52.227Z,92.10
2018-11-14T12:43:20.035Z,91.60
2018-11-14T12:45:47.775Z,92.20
2018-11-14T12:48:16.081Z,91.80
2018-11-14T12:50:43.784Z,92.30
2018-11-14T12:53:11.443Z,92.40
2018-11-14T12:55:39.167Z,92.60
2018-11-14T12:58:06.899Z,92.30
2018-11-14T13:03:47.335Z,92.70
2018-11-14T13:06:15.551Z,92.90
2018-11-14T13:08:44.354Z,93.10
2018-11-14T13:11:16.521Z,93.10
2018-11-14T13:13:47.264Z,93.30
2018-11-14T13:16:17.820Z,93.40
2018-11-14T13:18:54.317Z,93.20
2018-11-14T13:21:22.139Z,93.20
2018-11-14T13:23:49.811Z,93.40
2018-11-14T13:26:17.729Z,93.40
2018-11-14T13:28:45.741Z,93.30
2018-11-14T13:31:13.631Z,93.30
2018-11-14T13:33:42.035Z,92.80
2018-11-14T13:36:09.831Z,92.40
2018-11-14T13:38:37.501Z,92.40
2018-11-14T13:41:05.399Z,92.40
2018-11-14T13:43:33.141Z,92.50
2018-11-14T13:46:00.835Z,92.50
2018-11-14T13:48:30.744Z,92.70
2018-11-14T13:50:58.611Z,92.90
2018-11-14T13:53:26.527Z,93.00
2018-11-14T13:55:54.241Z,92.80
2018-11-14T13:58:21.953Z,93.00
2018-11-14T14:00:49.664Z,93.10
2018-11-14T14:03:17.434Z,93.10
2018-11-14T14:05:46.224Z,93.30
2018-11-14T14:08:13.949Z,93.20
2018-11-14T14:21:00.852Z,93.90
2018-11-14T14:23:28.626Z,94.10
2018-11-14T14:25:56.419Z,94.00
2018-11-14T14:28:24.119Z,94.00
2018-11-14T14:30:51.960Z,94.10
2018-11-14T14:33:19.583Z,94.10
2018-11-14T14:59:35.210Z,94.40
2018-11-14T15:02:02.979Z,94.30
2018-11-14T15:04:30.738Z,94.20
2018-11-14T15:06:58.469Z,94.30
2018-11-14T15:09:26.222Z,94.40
2018-11-14T15:11:53.915Z,94.70
2018-11-14T15:14:21.627Z,94.50
2018-11-14T15:16:49.378Z,94.50
2018-11-14T15:19:17.057Z,94.70
2018-11-14T15:21:44.709Z,94.50
2018-11-14T15:24:12.403Z,94.50
2018-11-14T15:26:41.208Z,94.70
2018-11-14T15:29:08.896Z,94.80
2018-11-14T15:31:36.628Z,94.90
2018-11-14T15:34:05.075Z,94.90
2018-11-14T15:36:32.783Z,95.00
2018-11-14T15:39:00.485Z,95.30
2018-11-14T15:41:28.204Z,95.10
2018-11-14T15:43:55.945Z,95.10
2018-11-14T15:46:23.681Z,95.00
2018-11-14T15:48:51.357Z,95.10
2018-11-14T15:51:20.724Z,95.10
2018-11-14T15:53:48.455Z,95.20
2018-11-14T15:56:16.197Z,95.20
2018-11-14T15:58:43.920Z,95.40
2018-11-14T16:01:11.653Z,95.10
2018-11-14T16:03:39.475Z,95.10
2018-11-14T16:06:07.371Z,95.20
2018-11-14T16:08:35.105Z,95.10
2018-11-14T16:11:02.923Z,95.20
2018-11-14T16:13:30.663Z,95.10
2018-11-14T16:15:58.435Z,95.20
2018-11-14T16:18:26.213Z,95.10
2018-11-14T16:20:53.902Z,95.00
2018-11-14T16:23:21.684Z,95.00
2018-11-14T16:25:49.413Z,95.10
2018-11-14T16:28:17.167Z,95.00
2018-11-14T16:30:44.877Z,95.00
2018-11-14T16:33:12.592Z,95.00
2018-11-14T16:35:40.325Z,95.00
2018-11-14T16:38:08.095Z,95.00
2018-11-14T16:40:35.890Z,95.00
2018-11-14T16:43:06.372Z,95.00
2018-11-14T16:45:34.068Z,95.00
2018-11-14T16:48:01.761Z,94.90
2018-11-14T16:50:29.477Z,94.90
2018-11-14T16:52:58.419Z,95.00
2018-11-14T16:55:26.173Z,94.80
2018-11-14T16:58:09.271Z,94.80
2018-11-14T17:00:37.125Z,94.90
2018-11-14T17:03:05.031Z,94.90
2018-11-14T17:05:33.157Z,94.90
2018-11-14T17:08:01.650Z,94.80
2018-11-14T17:10:30.896Z,95.10
2018-11-14T17:12:59.623Z,95.30
2018-11-14T17:15:27.668Z,95.00
2018-11-14T17:17:55.375Z,95.10
2018-11-14T17:20:23.478Z,95.00
2018-11-14T17:22:52.822Z,94.80
2018-11-14T17:25:20.743Z,94.80
2018-11-14T17:27:48.781Z,94.70
2018-11-14T17:30:18.040Z,94.60
2018-11-14T17:32:46.026Z,94.70
2018-11-14T17:35:14.492Z,94.70
2018-11-14T17:37:43.117Z,94.70
2018-11-14T17:40:13.809Z,94.80
2018-11-14T17:42:42.343Z,94.80
2018-11-14T17:45:12.502Z,94.80
2018-11-14T17:47:40.282Z,94.90
2018-11-14T17:50:12.297Z,95.00
2018-11-14T17:52:40.157Z,95.20
2018-11-14T17:55:09.668Z,94.90
2018-11-14T17:57:37.427Z,95.00
2018-11-14T18:00:06.933Z,95.00
2018-11-14T18:05:11.429Z,95.00
2018-11-14T18:07:39.140Z,95.10
2018-11-14T18:10:14.997Z,95.20
2018-11-14T18:12:43.635Z,95.20
2018-11-14T18:15:11.935Z,95.00
2018-11-14T18:17:40.077Z,95.00
2018-11-14T18:20:10.244Z,95.10
2018-11-14T18:22:38.596Z,95.10
2018-11-14T18:25:06.422Z,95.20
2018-11-14T18:27:34.082Z,95.20
2018-11-14T18:30:01.844Z,95.50
2018-11-14T18:32:29.674Z,95.30
2018-11-14T18:34:57.335Z,95.30
2018-11-14T18:37:25.138Z,95.30
2018-11-14T18:39:52.856Z,95.30
2018-11-14T18:42:20.584Z,95.20
2018-11-14T18:44:48.433Z,95.20
2018-11-14T18:47:16.273Z,95.30
2018-11-14T18:49:44.055Z,95.30
2018-11-14T18:52:11.915Z,95.20
2018-11-14T18:54:39.984Z,95.20
2018-11-14T18:57:08.124Z,95.20
2018-11-14T18:59:35.820Z,95.20
2018-11-14T19:02:03.598Z,95.20
2018-11-14T19:04:31.316Z,95.50
2018-11-14T19:06:59.288Z,95.50
2018-11-14T19:09:27.047Z,95.60
2018-11-14T19:11:54.769Z,95.70
2018-11-14T19:14:22.484Z,95.70
2018-11-14T19:16:50.255Z,95.80
2018-11-14T19:19:17.954Z,95.70
2018-11-14T19:21:45.712Z,95.80
2018-11-14T19:24:13.575Z,95.90
2018-11-14T19:26:41.603Z,95.90
2018-11-14T19:29:09.403Z,95.90
2018-11-14T19:31:37.203Z,96.00
2018-11-14T19:34:05.219Z,96.20
2018-11-14T19:36:32.941Z,95.80
2018-11-14T19:39:00.757Z,95.60
2018-11-14T19:41:28.773Z,95.40
2018-11-14T19:43:56.477Z,95.50
2018-11-14T19:46:24.258Z,95.50
2018-11-14T19:48:52.002Z,95.40
2018-11-14T19:51:19.729Z,95.20
2018-11-14T19:53:47.452Z,95.30
2018-11-14T19:56:15.188Z,95.40
2018-11-14T19:58:42.982Z,95.50
2018-11-14T20:01:10.819Z,95.50
2018-11-14T20:03:38.563Z,95.80
2018-11-14T20:06:06.850Z,95.50
2018-11-14T20:08:34.668Z,95.50
2018-11-14T20:11:02.465Z,95.50
2018-11-14T20:13:30.347Z,95.50
2018-11-14T20:15:58.315Z,95.60
2018-11-14T20:18:26.067Z,95.50
2018-11-14T20:20:53.982Z,95.60
2018-11-14T20:23:21.720Z,95.50
2018-11-14T20:25:49.577Z,95.50
2018-11-14T20:28:17.287Z,95.50
2018-11-14T20:30:45.060Z,95.50
2018-11-14T20:33:13.512Z,95.50
2018-11-14T20:35:41.430Z,95.70
2018-11-14T20:38:10.028Z,95.80
2018-11-14T20:40:39.272Z,95.80
2018-11-14T20:43:07.355Z,95.90
2018-11-14T20:45:35.444Z,95.80
2018-11-14T20:48:03.187Z,95.90
2018-11-14T20:50:30.899Z,95.80
2018-11-14T20:53:00.534Z,95.90
2018-11-14T20:55:28.779Z,95.90
2018-11-14T20:57:56.858Z,95.90
2018-11-14T21:00:33.710Z,95.90
2018-11-14T21:03:01.562Z,95.90
2018-11-14T21:05:29.738Z,95.90
2018-11-14T21:07:57.516Z,95.80
2018-11-14T21:10:29.521Z,95.60
2018-11-14T21:12:57.799Z,95.40
2018-11-14T21:15:31.819Z,95.40
2018-11-14T21:18:00.407Z,95.40
2018-11-14T21:20:28.227Z,95.50
2018-11-14T21:22:56.076Z,95.20
2018-11-14T21:25:24.583Z,95.20
2018-11-14T21:27:52.971Z,95.40
2018-11-14T21:30:22.066Z,95.40
2018-11-14T21:32:49.901Z,95.30
2018-11-14T21:35:21.013Z,95.30
2018-11-14T21:37:56.701Z,95.40
2018-11-14T21:40:24.508Z,95.40
2018-11-14T21:42:52.296Z,95.60
2018-11-14T21:45:21.475Z,95.50
2018-11-14T21:47:54.839Z,95.50
2018-11-14T21:50:23.980Z,95.50
2018-11-14T21:52:51.750Z,95.50
2018-11-14T21:55:19.505Z,95.20
2018-11-14T21:57:47.282Z,95.20
2018-11-14T22:00:17.938Z,95.20
2018-11-14T22:02:47.159Z,95.20
2018-11-14T22:05:14.935Z,95.20
2018-11-14T22:07:42.684Z,95.20
2018-11-14T22:10:13.852Z,95.30
2018-11-14T22:12:42.294Z,95.30
2018-11-14T22:15:10.614Z,95.10
2018-11-14T22:17:38.852Z,95.10
2018-11-14T22:20:08.673Z,95.10
2018-11-14T22:22:36.450Z,95.10
2018-11-14T22:25:04.306Z,95.10
2018-11-14T22:27:32.022Z,95.10
2018-11-14T22:29:59.746Z,95.10
2018-11-14T22:32:27.922Z,95.10
2018-11-14T22:34:55.747Z,94.90
2018-11-14T22:37:23.490Z,95.00
2018-11-14T22:39:51.405Z,95.00
2018-11-14T22:42:20.289Z,95.10
2018-11-14T22:44:48.062Z,95.00
2018-11-14T22:47:16.124Z,94.90
2018-11-14T22:49:43.838Z,94.90
2018-11-14T22:52:11.608Z,94.90
2018-11-14T22:54:39.445Z,94.80
2018-11-14T22:57:07.204Z,94.80
2018-11-14T22:59:34.959Z,94.80
2018-11-14T23:02:02.720Z,94.80
2018-11-14T23:04:30.470Z,94.80
2018-11-14T23:06:58.206Z,94.90
2018-11-14T23:09:25.937Z,94.70
2018-11-14T23:11:53.643Z,94.70
2018-11-14T23:14:21.371Z,94.50
2018-11-14T23:16:49.133Z,94.50
2018-11-14T23:19:16.864Z,94.60
2018-11-14T23:21:44.599Z,94.70
2018-11-14T23:24:12.310Z,94.70
2018-11-14T23:26:39.996Z,94.70
2018-11-14T23:29:07.702Z,94.80
2018-11-14T23:31:35.436Z,94.90
2018-11-14T23:34:03.206Z,95.00
2018-11-14T23:36:30.937Z,95.00
2018-11-14T23:38:58.695Z,95.00
2018-11-14T23:41:26.406Z,95.00
2018-11-14T23:43:54.155Z,95.10
2018-11-14T23:46:21.958Z,94.90
2018-11-14T23:48:49.666Z,94.90
2018-11-14T23:51:17.411Z,95.00
2018-11-14T23:53:45.597Z,95.00
2018-11-14T23:56:13.301Z,95.00
2018-11-14T23:58:41.014Z,95.00
